Time;durP1;ratioP1;P1;durP2;ratioP2;P2;SDS_P1;SDS_P2;PMS_P1;PMS_P2;Temp;Humidity;BMP_temperature;BMP_pressure;BME280_temperature;BME280_humidity;BME280_pressure;Samples;Min_cycle;Max_cycle;Signal;HPM_P1;HPM_P2
2021/05/01 00:02:10;;;;;;;19.75;15.35;;;;;;;9.30;64.19;96056.91;1739214;81;21157;-81
2021/05/01 00:04:36;;;;;;;16.67;14.58;;;;;;;9.26;64.14;96062.61;1765912;80;21118;-80
2021/05/01 00:07:02;;;;;;;16.75;14.60;;;;;;;9.24;64.21;96064.59;1743042;81;21132;-80
2021/05/01 00:09:28;;;;;;;16.60;13.78;;;;;;;9.23;64.30;96062.98;1751102;81;21098;-81
2021/05/01 00:11:55;;;;;;;17.82;14.20;;;;;;;9.19;64.20;96063.84;1741875;81;21133;-81
2021/05/01 00:14:25;;;;;;;17.05;13.83;;;;;;;9.17;64.22;96061.12;1746413;81;21586;-80
2021/05/01 00:16:50;;;;;;;17.85;13.72;;;;;;;9.13;64.23;96059.87;1742373;81;21272;-80
2021/05/01 00:19:16;;;;;;;16.85;12.82;;;;;;;9.11;64.28;96057.94;1745381;81;21347;-81
2021/05/01 00:21:42;;;;;;;18.10;12.75;;;;;;;9.12;64.41;96065.56;1746958;81;21106;-80
2021/05/01 00:24:08;;;;;;;16.27;13.55;;;;;;;9.15;64.54;96061.80;1744337;81;21268;-80
2021/05/01 00:26:34;;;;;;;16.35;12.07;;;;;;;9.17;64.19;96048.96;1745069;81;21145;-79
2021/05/01 00:29:00;;;;;;;14.47;11.90;;;;;;;9.17;64.36;96032.61;1744974;81;21241;-80
2021/05/01 00:31:28;;;;;;;14.53;12.53;;;;;;;9.13;64.69;96026.19;1743726;81;21125;-80
2021/05/01 00:33:55;;;;;;;16.05;13.28;;;;;;;9.09;64.71;96027.02;1743993;81;21383;-79
2021/05/01 00:36:21;;;;;;;18.55;13.68;;;;;;;9.09;64.27;96038.68;1746769;81;21098;-80
2021/05/01 00:38:47;;;;;;;14.95;12.70;;;;;;;9.06;64.45;96046.02;1746245;81;21110;-80
2021/05/01 00:41:13;;;;;;;16.07;12.90;;;;;;;9.02;64.40;96055.95;1740574;81;21100;-81
2021/05/01 00:43:42;;;;;;;17.60;14.07;;;;;;;9.00;64.55;96052.23;1744686;81;21493;-79
2021/05/01 00:46:09;;;;;;;17.05;13.95;;;;;;;9.00;64.61;96062.61;1748021;81;21131;-80
2021/05/01 00:48:35;;;;;;;18.17;14.35;;;;;;;8.94;64.87;96059.41;1752051;81;21380;-79
2021/05/01 00:51:01;;;;;;;17.40;12.35;;;;;;;8.94;64.95;96059.91;1747750;81;21431;-79
2021/05/01 00:53:27;;;;;;;16.02;10.80;;;;;;;8.93;65.32;96051.33;1754381;81;21267;-79
2021/05/01 00:55:53;;;;;;;13.28;10.50;;;;;;;8.96;65.69;96046.30;1751053;81;21115;-80
2021/05/01 00:58:20;;;;;;;15.32;10.35;;;;;;;9.00;66.12;96048.84;1750008;81;21078;-79
2021/05/01 01:01:03;;;;;;;13.62;11.10;;;;;;;9.02;65.78;96048.97;1752438;81;21155;-79
2021/05/01 01:03:14;;;;;;;12.70;10.53;;;;;;;9.05;65.99;96045.22;1749412;81;21177;-80
2021/05/01 01:05:40;;;;;;;11.22;10.10;;;;;;;9.06;66.10;96039.05;1750425;81;21303;-79
2021/05/01 01:08:06;;;;;;;12.00;9.98;;;;;;;9.04;66.22;96038.42;1748792;81;21108;-79
2021/05/01 01:10:32;;;;;;;12.82;11.03;;;;;;;9.05;66.34;96028.86;1746196;81;21125;-79
2021/05/01 01:12:58;;;;;;;11.35;10.13;;;;;;;9.06;66.31;96031.77;1751793;81;21379;-79
2021/05/01 01:15:28;;;;;;;10.20;8.48;;;;;;;9.06;66.07;96035.65;1747959;81;21114;-79
2021/05/01 01:17:54;;;;;;;12.37;9.75;;;;;;;9.05;66.27;96037.93;1752783;81;21448;-79
2021/05/01 01:20:20;;;;;;;12.82;11.28;;;;;;;9.00;67.10;96034.09;1750263;81;21139;-79
2021/05/01 01:22:46;;;;;;;15.38;11.63;;;;;;;8.97;67.02;96020.70;1718176;81;21119;-79
2021/05/01 01:25:12;;;;;;;14.33;11.35;;;;;;;8.97;66.95;96017.63;1748652;81;21153;-79
2021/05/01 01:27:38;;;;;;;15.20;11.28;;;;;;;8.96;66.65;96008.24;1751145;81;21078;-79
2021/05/01 01:30:07;;;;;;;16.02;12.18;;;;;;;8.96;66.37;96003.55;1752657;81;21315;-80
2021/05/01 01:32:32;;;;;;;16.35;12.63;;;;;;;8.92;66.03;96001.79;1748176;81;21128;-79
2021/05/01 01:34:59;;;;;;;18.50;14.55;;;;;;;8.94;66.05;96015.86;1749401;81;21299;-79
2021/05/01 01:37:25;;;;;;;15.98;13.45;;;;;;;8.94;65.83;96023.63;1752492;81;21140;-79
2021/05/01 01:39:51;;;;;;;19.23;14.98;;;;;;;8.95;66.12;96030.45;1743813;81;21116;-79
2021/05/01 01:42:17;;;;;;;17.05;14.30;;;;;;;8.94;66.17;96033.50;1743281;81;21383;-80
2021/05/01 01:44:43;;;;;;;18.05;14.70;;;;;;;8.91;66.48;96037.75;1747617;81;21121;-80
2021/05/01 01:47:09;;;;;;;16.00;13.53;;;;;;;8.92;66.25;96040.66;1745279;81;21454;-81
2021/05/01 01:49:38;;;;;;;18.02;14.03;;;;;;;8.97;66.60;96044.03;1739169;81;21113;-80
2021/05/01 01:52:04;;;;;;;14.65;11.83;;;;;;;8.97;66.49;96044.03;1798893;78;21134;-80
2021/05/01 01:54:30;;;;;;;15.40;13.62;;;;;;;9.02;67.10;96034.72;1808381;78;21226;-80
2021/05/01 01:56:59;;;;;;;16.02;13.08;;;;;;;9.07;66.89;96029.48;1797543;78;21220;-80
2021/05/01 01:59:27;;;;;;;13.28;11.53;;;;;;;9.12;67.05;96028.47;1799404;78;21346;-81
2021/05/01 02:01:54;;;;;;;15.25;11.12;;;;;;;9.13;67.33;96025.69;1801318;78;21117;-79
2021/05/01 02:04:20;;;;;;;17.35;12.98;;;;;;;9.14;67.30;96026.00;1794337;78;21108;-79
2021/05/01 02:06:46;;;;;;;14.23;12.50;;;;;;;9.13;67.40;96029.58;1801314;78;21126;-79
2021/05/01 02:09:12;;;;;;;16.05;12.47;;;;;;;9.08;68.22;96028.00;1796142;78;21086;-79
2021/05/01 02:11:38;;;;;;;16.12;12.10;;;;;;;9.07;68.61;96023.80;1793104;78;22055;-79
2021/05/01 02:14:04;;;;;;;17.25;12.65;;;;;;;9.07;69.02;96003.56;1791652;78;21199;-79
2021/05/01 02:16:31;;;;;;;17.92;13.35;;;;;;;9.07;69.01;96012.63;1795697;78;21129;-80
2021/05/01 02:18:57;;;;;;;14.10;12.58;;;;;;;9.11;69.17;96017.30;1792878;78;21308;-79
2021/05/01 02:21:24;;;;;;;14.98;13.40;;;;;;;9.14;69.94;96019.52;1797009;78;21136;-79
2021/05/01 02:23:50;;;;;;;14.50;12.30;;;;;;;9.16;70.40;96012.86;1793514;78;21104;-80
2021/05/01 02:26:16;;;;;;;15.63;13.93;;;;;;;9.13;70.64;96010.63;1797470;78;21464;-80
2021/05/01 02:28:43;;;;;;;19.35;14.43;;;;;;;9.10;70.95;96008.38;1745153;80;21098;-81
2021/05/01 02:31:10;;;;;;;19.40;16.32;;;;;;;9.09;71.15;96015.84;1731935;82;21157;-80
2021/05/01 02:33:36;;;;;;;17.75;15.45;;;;;;;9.15;71.73;96019.03;1803492;78;21820;-81
2021/05/01 02:36:02;;;;;;;19.95;14.25;;;;;;;9.17;71.83;96007.48;1797416;78;21110;-80
2021/05/01 02:38:28;;;;;;;19.20;14.65;;;;;;;9.19;71.74;96003.41;1795592;78;21089;-81
2021/05/01 02:40:55;;;;;;;18.48;15.58;;;;;;;9.22;71.68;96006.94;1800838;78;21491;-80
2021/05/01 02:43:21;;;;;;;18.17;16.20;;;;;;;9.26;71.63;96014.65;1796352;78;21315;-81
2021/05/01 02:45:47;;;;;;;19.00;16.30;;;;;;;9.30;72.28;96012.03;1798856;78;21431;-80
2021/05/01 02:48:14;;;;;;;19.15;15.75;;;;;;;9.31;72.58;96015.73;1798599;78;21066;-80
2021/05/01 02:50:40;;;;;;;16.40;14.58;;;;;;;9.33;72.32;96014.25;1800670;78;21299;-80
2021/05/01 02:53:06;;;;;;;16.80;15.03;;;;;;;9.37;72.08;96030.23;1776056;78;21352;-80
2021/05/01 02:55:33;;;;;;;18.90;16.15;;;;;;;9.39;72.09;96040.73;1798634;78;21056;-80
2021/05/01 02:57:59;;;;;;;19.32;16.85;;;;;;;9.44;72.57;96043.61;1796149;78;21093;-81
2021/05/01 03:00:26;;;;;;;18.67;16.57;;;;;;;9.40;72.71;96035.05;1797954;78;21320;-80
2021/05/01 03:02:55;;;;;;;20.70;18.60;;;;;;;9.35;72.54;96029.13;1797189;78;21110;-80
2021/05/01 03:05:22;;;;;;;20.37;17.40;;;;;;;9.23;72.24;96028.78;1801912;78;21271;-81
2021/05/01 03:07:48;;;;;;;21.00;18.27;;;;;;;9.21;72.14;96028.66;1803597;78;21137;-80
2021/05/01 03:10:19;;;;;;;20.45;18.32;;;;;;;9.23;72.23;96024.89;1801020;78;21276;-80
2021/05/01 03:12:45;;;;;;;20.70;18.50;;;;;;;9.14;72.41;96011.74;1794855;78;21067;-80
2021/05/01 03:15:12;;;;;;;21.23;19.02;;;;;;;8.97;72.68;96023.30;1804593;78;21117;-80
2021/05/01 03:17:38;;;;;;;24.25;19.95;;;;;;;8.91;73.14;96035.16;1803374;78;21262;-80
2021/05/01 03:20:06;;;;;;;24.20;20.62;;;;;;;8.88;72.92;96038.61;1798589;78;21401;-80
2021/05/01 03:22:33;;;;;;;23.02;20.55;;;;;;;8.86;73.23;96021.15;1803935;78;21133;-80
2021/05/01 03:24:59;;;;;;;22.95;20.55;;;;;;;8.86;73.40;96018.06;1802129;78;21060;-80
2021/05/01 03:27:25;;;;;;;22.98;20.30;;;;;;;8.86;73.65;96010.30;1802154;78;21747;-80
2021/05/01 03:29:54;;;;;;;23.05;19.95;;;;;;;8.81;73.62;96010.03;1801154;78;21105;-80
2021/05/01 03:32:20;;;;;;;24.10;21.60;;;;;;;8.81;73.35;96019.59;1797249;78;21271;-80
2021/05/01 03:34:45;;;;;;;26.90;22.85;;;;;;;8.82;73.44;96025.09;1795939;78;21069;-80
2021/05/01 03:37:11;;;;;;;29.67;24.32;;;;;;;8.78;73.56;96014.26;1804611;78;21125;-81
2021/05/01 03:39:37;;;;;;;27.52;23.00;;;;;;;8.71;73.45;96010.78;1801372;78;21416;-80
2021/05/01 03:42:05;;;;;;;25.80;23.10;;;;;;;8.68;73.57;95997.70;1803522;78;21483;-79
2021/05/01 03:44:31;;;;;;;26.82;22.45;;;;;;;8.66;73.60;96004.86;1806591;78;21097;-79
2021/05/01 03:46:57;;;;;;;26.42;23.73;;;;;;;8.67;73.58;96016.83;1808017;78;21232;-80
2021/05/01 03:49:23;;;;;;;23.92;21.48;;;;;;;8.69;74.05;96008.38;1808153;78;21096;-79
2021/05/01 03:51:49;;;;;;;26.23;23.40;;;;;;;8.60;74.10;96010.73;1806550;78;21062;-80
2021/05/01 03:54:16;;;;;;;27.93;24.92;;;;;;;8.51;74.10;96022.66;1802433;78;21147;-80
2021/05/01 03:56:42;;;;;;;28.80;25.75;;;;;;;8.49;74.25;96028.52;1806200;78;21092;-80
2021/05/01 03:59:51;;;;;;;26.62;23.85;;;;;;;8.52;74.43;96020.38;1804996;78;21116;-80
2021/05/01 04:02:20;;;;;;;25.17;22.62;;;;;;;8.53;74.75;96015.52;1752341;80;21103;-79
2021/05/01 04:04:47;;;;;;;26.12;23.47;;;;;;;8.51;74.47;96014.89;1766118;80;21306;-81
2021/05/01 04:07:13;;;;;;;25.50;22.90;;;;;;;8.51;74.72;96018.78;1803611;78;21101;-81
2021/05/01 04:09:39;;;;;;;26.62;23.05;;;;;;;8.47;74.67;96025.30;1798850;78;21220;-81
2021/05/01 04:12:06;;;;;;;25.08;21.50;;;;;;;8.39;74.70;96009.34;1800069;78;21124;-81
2021/05/01 04:14:32;;;;;;;27.90;24.95;;;;;;;8.36;75.11;95997.55;1771789;78;21082;-81
2021/05/01 04:16:58;;;;;;;25.97;23.18;;;;;;;8.35;75.05;95999.83;1800198;78;21132;-80
2021/05/01 04:19:24;;;;;;;26.90;24.00;;;;;;;8.42;75.13;96005.09;1800420;78;21254;-80
2021/05/01 04:21:50;;;;;;;26.05;23.07;;;;;;;8.43;75.15;95991.97;1779826;78;21626;-80
2021/05/01 04:24:16;;;;;;;27.15;22.90;;;;;;;8.39;75.08;95982.16;1798814;78;21585;-80
2021/05/01 04:26:42;;;;;;;28.73;25.57;;;;;;;8.38;75.35;95974.08;1801005;78;21587;-80
2021/05/01 04:29:08;;;;;;;25.95;23.20;;;;;;;8.41;75.46;95984.08;1808017;78;21224;-80
2021/05/01 04:31:34;;;;;;;27.98;24.05;;;;;;;8.38;75.56;95987.02;1761751;80;21152;-81
2021/05/01 04:34:00;;;;;;;25.77;23.18;;;;;;;8.39;75.44;95992.52;1797469;78;21251;-82
2021/05/01 04:36:26;;;;;;;25.57;23.05;;;;;;;8.45;75.34;95987.10;1806497;78;21246;-81
2021/05/01 04:38:52;;;;;;;28.30;24.00;;;;;;;8.53;75.74;95987.84;1795758;78;21335;-82
2021/05/01 04:41:18;;;;;;;26.60;23.50;;;;;;;8.59;75.52;95991.48;1794437;78;21195;-81
2021/05/01 04:43:46;;;;;;;29.02;25.88;;;;;;;8.65;75.49;95990.30;1794631;78;21327;-80
2021/05/01 04:46:17;;;;;;;27.65;24.63;;;;;;;8.68;75.54;95983.95;1798791;78;21474;-80
2021/05/01 04:48:43;;;;;;;30.95;26.85;;;;;;;8.61;75.58;95977.86;1798128;78;21228;-80
2021/05/01 04:51:09;;;;;;;27.65;24.32;;;;;;;8.60;75.85;95966.70;1772922;78;21093;-79
2021/05/01 04:53:35;;;;;;;27.75;23.38;;;;;;;8.55;75.44;95963.05;1759995;78;21495;-80
2021/05/01 04:56:01;;;;;;;27.93;24.05;;;;;;;8.48;75.56;95962.98;1797408;78;21215;-80
2021/05/01 04:58:27;;;;;;;29.40;26.23;;;;;;;8.40;75.46;95958.67;1803772;78;21096;-80
2021/05/01 05:00:53;;;;;;;29.82;26.68;;;;;;;8.44;75.76;95957.82;1798603;78;21123;-79
2021/05/01 05:03:19;;;;;;;28.00;25.02;;;;;;;8.50;75.84;95957.62;1797872;78;21086;-80
2021/05/01 05:05:45;;;;;;;30.92;26.40;;;;;;;8.48;76.00;95965.56;1796984;78;21082;-81
2021/05/01 05:08:11;;;;;;;29.57;26.48;;;;;;;8.48;76.29;95969.45;1811253;78;21093;-81
2021/05/01 05:10:37;;;;;;;33.33;27.22;;;;;;;8.55;76.07;95970.33;1805473;78;21185;-80
2021/05/01 05:13:03;;;;;;;30.37;27.13;;;;;;;8.64;76.11;95973.65;1807805;78;21216;-80
2021/05/01 05:15:29;;;;;;;35.20;28.95;;;;;;;8.70;75.90;95966.44;1808354;78;21211;-80
2021/05/01 05:17:55;;;;;;;31.77;28.30;;;;;;;8.80;75.85;95967.47;1802483;78;21505;-80
2021/05/01 05:20:23;;;;;;;33.50;28.40;;;;;;;8.86;75.88;95971.43;1780814;80;21102;-80
2021/05/01 05:22:49;;;;;;;33.67;29.35;;;;;;;8.83;75.60;95978.27;1805161;78;21115;-79
2021/05/01 05:25:15;;;;;;;34.40;26.87;;;;;;;8.82;75.96;95979.75;1802175;78;21103;-80
2021/05/01 05:27:41;;;;;;;32.58;27.65;;;;;;;8.85;76.10;95985.38;1799667;78;21086;-80
2021/05/01 05:30:08;;;;;;;30.17;26.40;;;;;;;8.88;76.29;95987.59;1784429;78;21108;-80
2021/05/01 05:32:34;;;;;;;31.40;26.93;;;;;;;8.92;76.01;95980.26;1809771;78;21086;-80
2021/05/01 05:35:00;;;;;;;32.35;27.22;;;;;;;8.97;76.08;95985.72;1797573;79;21057;-80
2021/05/01 05:37:26;;;;;;;30.20;26.27;;;;;;;8.98;76.01;95993.80;1788419;78;21105;-80
2021/05/01 05:39:53;;;;;;;30.23;26.17;;;;;;;8.98;75.87;95998.98;1803974;78;21192;-80
2021/05/01 05:42:20;;;;;;;29.15;26.10;;;;;;;8.92;75.74;96003.58;1806627;79;21411;-80
2021/05/01 05:44:49;;;;;;;29.77;26.60;;;;;;;8.92;75.79;95997.91;1819929;78;21118;-80
2021/05/01 05:47:19;;;;;;;26.50;23.77;;;;;;;8.92;75.78;95990.13;1771670;78;21090;-80
2021/05/01 05:49:45;;;;;;;29.48;26.30;;;;;;;8.84;75.99;95994.63;1783911;80;21226;-80
2021/05/01 05:52:11;;;;;;;34.03;30.35;;;;;;;8.75;76.14;96006.05;1753897;81;21215;-80
2021/05/01 05:54:37;;;;;;;34.65;29.45;;;;;;;8.76;76.46;96002.47;1765038;81;21137;-79
2021/05/01 05:57:08;;;;;;;32.63;28.35;;;;;;;8.82;76.33;96007.75;1750463;81;21130;-80
2021/05/01 05:59:34;;;;;;;32.17;28.67;;;;;;;8.89;76.54;96002.16;1720402;81;21134;-79
2021/05/01 06:02:02;;;;;;;32.80;28.70;;;;;;;8.93;76.08;96003.39;1760834;81;21078;-79
2021/05/01 06:04:36;;;;;;;35.50;30.88;;;;;;;8.96;76.03;96010.03;1755288;81;21329;-80
2021/05/01 06:07:11;;;;;;;36.20;31.30;;;;;;;8.96;75.91;96008.24;1737212;81;21228;-80
2021/05/01 06:09:39;;;;;;;35.70;30.88;;;;;;;8.96;75.80;96012.13;1744614;81;21440;-80
2021/05/01 06:12:05;;;;;;;34.95;29.63;;;;;;;8.91;76.25;96007.16;1754847;81;21109;-80
2021/05/01 06:14:31;;;;;;;36.58;30.05;;;;;;;8.87;76.25;95998.95;1753233;81;21078;-79
2021/05/01 06:16:57;;;;;;;35.52;30.80;;;;;;;8.88;76.29;96007.03;1752332;81;21129;-79
2021/05/01 06:19:23;;;;;;;35.80;31.80;;;;;;;8.84;76.20;96008.38;1746762;81;21204;-80
2021/05/01 06:21:49;;;;;;;36.15;31.30;;;;;;;8.83;76.46;96008.06;1751699;81;21308;-80
2021/05/01 06:24:17;;;;;;;38.33;31.02;;;;;;;8.87;76.31;96002.83;1724869;81;21352;-80
2021/05/01 06:26:44;;;;;;;35.75;31.52;;;;;;;8.91;76.27;96001.97;1746903;81;21337;-80
2021/05/01 06:29:10;;;;;;;39.30;32.23;;;;;;;8.93;76.30;96000.00;1758289;81;21118;-80
2021/05/01 06:31:37;;;;;;;33.83;29.70;;;;;;;8.89;76.85;95996.17;1756938;81;21573;-81
2021/05/01 06:34:04;;;;;;;35.40;31.27;;;;;;;8.82;76.78;95983.64;1742774;81;21856;-80
2021/05/01 06:36:32;;;;;;;36.50;29.98;;;;;;;8.80;76.91;95981.72;1752824;81;21100;-80
2021/05/01 06:39:04;;;;;;;37.42;32.08;;;;;;;8.85;77.19;95980.19;1750161;81;21117;-81
2021/05/01 06:41:27;;;;;;;41.35;32.42;;;;;;;8.89;77.10;95989.69;1755470;81;21123;-81
2021/05/01 06:44:05;;;;;;;39.23;32.85;;;;;;;8.86;76.99;95996.53;1761032;81;21106;-80
2021/05/01 06:46:33;;;;;;;37.65;29.82;;;;;;;8.80;77.23;95997.27;1766434;81;21105;-81
2021/05/01 06:49:03;;;;;;;37.95;29.42;;;;;;;8.80;77.17;96001.16;1741373;81;21122;-80
2021/05/01 06:51:30;;;;;;;36.75;31.75;;;;;;;8.79;77.17;96000.34;1767441;80;21213;-80
2021/05/01 06:53:57;;;;;;;40.08;31.85;;;;;;;8.78;77.25;96010.38;1819650;78;21141;-80
2021/05/01 06:56:23;;;;;;;41.00;33.50;;;;;;;8.77;77.32;96014.44;1801616;78;21086;-80
2021/05/01 06:58:49;;;;;;;40.30;32.80;;;;;;;8.72;77.20;96015.78;1754141;80;21260;-81
2021/05/01 07:01:15;;;;;;;40.88;33.70;;;;;;;8.76;77.28;96022.70;1797627;78;21239;-80
2021/05/01 07:03:47;;;;;;;43.50;34.78;;;;;;;8.79;77.20;96030.63;1804369;78;21826;-80
2021/05/01 07:06:14;;;;;;;45.92;34.78;;;;;;;8.71;77.01;96034.09;1802983;78;21227;-80
2021/05/01 07:08:40;;;;;;;41.20;32.48;;;;;;;8.75;77.27;96029.36;1803786;78;21098;-82
2021/05/01 07:11:08;;;;;;;44.30;35.33;;;;;;;8.82;77.37;96038.84;1799661;78;21216;-81
2021/05/01 07:13:34;;;;;;;45.17;37.55;;;;;;;8.88;77.10;96043.80;1777250;80;21119;-79
2021/05/01 07:16:03;;;;;;;50.52;38.83;;;;;;;8.94;77.26;96036.09;1731528;82;21118;-79
2021/05/01 07:18:27;;;;;;;51.98;38.38;;;;;;;8.91;77.02;96031.28;1733334;81;21270;-80
2021/05/01 07:21:08;;;;;;;48.55;37.73;;;;;;;8.86;77.28;96040.58;1767995;80;21216;-80
2021/05/01 07:23:35;;;;;;;51.70;39.73;;;;;;;8.73;77.38;96024.36;1817482;78;21216;-80
2021/05/01 07:26:03;;;;;;;47.50;35.25;;;;;;;8.90;77.40;96047.00;1801989;78;21095;-79
2021/05/01 07:28:30;;;;;;;45.05;35.70;;;;;;;8.87;77.12;96046.07;1794942;78;21153;-81
2021/05/01 07:30:57;;;;;;;50.17;37.63;;;;;;;8.92;77.17;96051.02;1790890;78;21145;-81
2021/05/01 07:33:31;;;;;;;52.75;39.95;;;;;;;8.94;77.31;96056.02;1806897;78;21058;-81
2021/05/01 07:36:11;;;;;;;51.05;39.30;;;;;;;8.87;77.06;96059.83;1802156;78;21110;-80
2021/05/01 07:38:38;;;;;;;50.23;38.98;;;;;;;8.87;77.42;96062.42;1794066;78;21224;-81
2021/05/01 07:41:04;;;;;;;51.73;38.83;;;;;;;8.81;77.23;96063.14;1794266;79;21058;-81
2021/05/01 07:43:31;;;;;;;49.10;37.75;;;;;;;8.75;77.39;96065.13;1794407;79;21089;-78
2021/05/01 07:46:05;;;;;;;49.93;37.05;;;;;;;8.77;77.46;96070.13;1817715;78;21102;-79
2021/05/01 07:48:30;;;;;;;50.58;37.25;;;;;;;8.84;77.62;96073.64;1809682;78;21082;-80
2021/05/01 07:50:57;;;;;;;51.63;38.50;;;;;;;8.93;77.85;96073.36;1747121;80;21214;-79
2021/05/01 07:53:23;;;;;;;47.17;36.63;;;;;;;8.98;77.97;96068.46;1762556;80;21130;-81
2021/05/01 07:55:49;;;;;;;51.73;38.30;;;;;;;9.01;77.92;96068.09;1760660;81;21236;-79
2021/05/01 07:58:15;;;;;;;55.33;43.90;;;;;;;9.09;77.95;96062.50;1763528;80;21161;-80
2021/05/01 08:00:43;;;;;;;54.73;37.42;;;;;;;9.15;77.79;96064.39;1769839;80;21138;-80
2021/05/01 08:03:09;;;;;;;53.08;37.50;;;;;;;9.16;77.77;96068.59;1742189;81;21125;-80
2021/05/01 08:05:35;;;;;;;49.63;39.05;;;;;;;9.17;77.99;96066.30;1767584;80;21349;-80
2021/05/01 08:08:01;;;;;;;44.93;35.48;;;;;;;9.20;77.94;96070.63;1747888;82;21102;-79
2021/05/01 08:10:28;;;;;;;47.93;37.33;;;;;;;9.26;78.10;96072.98;1753257;82;21262;-81
2021/05/01 08:12:54;;;;;;;75.80;49.73;;;;;;;9.25;77.92;96074.77;1755894;81;21336;-80
2021/05/01 08:15:20;;;;;;;87.30;56.68;;;;;;;9.27;77.96;96070.70;1753108;81;21098;-78
2021/05/01 08:17:46;;;;;;;91.92;60.78;;;;;;;9.32;78.22;96076.17;1767518;81;21102;-79
2021/05/01 08:20:14;;;;;;;95.65;63.83;;;;;;;9.40;78.04;96068.77;1763438;81;21097;-78
2021/05/01 08:22:41;;;;;;;48.92;37.93;;;;;;;9.40;78.04;96068.77;1751745;81;22005;-80
2021/05/01 08:25:11;;;;;;;50.03;37.00;;;;;;;9.45;77.59;96084.11;1764072;81;21463;-81
2021/05/01 08:27:39;;;;;;;47.50;36.45;;;;;;;9.39;77.47;96087.41;1765793;81;21097;-81
2021/05/01 08:30:08;;;;;;;45.88;35.68;;;;;;;9.37;77.65;96090.68;1766480;80;21122;-80
2021/05/01 08:32:34;;;;;;;48.83;38.08;;;;;;;9.36;77.65;96091.67;1758318;81;21145;-80
2021/05/01 08:35:02;;;;;;;51.75;36.60;;;;;;;9.37;77.61;96091.98;1751588;80;21062;-80
2021/05/01 08:37:31;;;;;;;48.65;37.05;;;;;;;9.40;77.92;96093.40;1749433;81;21140;-84
2021/05/01 08:39:57;;;;;;;51.10;39.15;;;;;;;9.41;77.87;96101.48;1761470;80;21340;-81
2021/05/01 08:42:24;;;;;;;48.85;37.53;;;;;;;9.42;77.97;96110.38;1730651;81;21229;-79
2021/05/01 08:44:53;;;;;;;49.70;38.95;;;;;;;9.44;77.97;96106.34;1749451;81;21354;-81
2021/05/01 08:47:22;;;;;;;52.45;40.00;;;;;;;9.43;77.71;96109.89;1746463;81;21331;-80
2021/05/01 08:49:48;;;;;;;46.58;35.50;;;;;;;9.43;77.68;96115.88;1751250;81;21117;-79
2021/05/01 08:52:14;;;;;;;51.18;36.95;;;;;;;9.39;77.73;96122.42;1763144;81;21104;-80
2021/05/01 08:54:46;;;;;;;47.45;37.50;;;;;;;9.37;77.71;96123.59;1758050;81;21135;-79
2021/05/01 08:57:28;;;;;;;47.55;35.28;;;;;;;9.42;78.00;96128.53;1754395;81;21109;-78
2021/05/01 08:59:54;;;;;;;;;;;;;;;9.47;78.05;96123.63;1801120;78;21098;-79
2021/05/01 09:02:28;;;;;;;55.92;40.03;;;;;;;9.47;77.89;96139.19;1805200;79;20101;-79
2021/05/01 09:04:54;;;;;;;50.60;36.93;;;;;;;9.48;78.11;96135.61;1812829;78;21075;-85
2021/05/01 09:07:21;;;;;;;54.40;40.92;;;;;;;9.46;77.90;96137.58;1809293;78;21221;-78
2021/05/01 09:09:58;;;;;;;52.67;39.53;;;;;;;9.44;78.05;96136.16;1745039;80;21098;-85
2021/05/01 09:12:45;;;;;;;52.50;40.33;;;;;;;9.43;77.96;96135.33;1751836;81;21140;-79
2021/05/01 09:15:25;;;;;;;58.23;42.80;;;;;;;9.48;77.90;96134.31;1746006;80;21340;-78
2021/05/01 09:18:01;;;;;;;60.67;41.90;;;;;;;9.51;77.74;96128.77;1800825;78;21334;-79
2021/05/01 09:20:27;;;;;;;50.80;37.40;;;;;;;9.48;77.64;96134.31;1796592;78;21134;-78
2021/05/01 09:23:13;;;;;;;57.95;41.90;;;;;;;9.45;77.45;96142.46;1814375;78;21070;-79
2021/05/01 09:25:54;;;;;;;60.88;43.63;;;;;;;9.39;77.56;96144.45;1798886;78;21062;-79
2021/05/01 09:28:23;;;;;;;58.17;41.48;;;;;;;9.42;77.77;96136.80;1811245;78;21531;-79
2021/05/01 09:31:10;;;;;;;68.67;53.10;;;;;;;9.46;77.70;96135.48;1816459;79;21086;-79
2021/05/01 09:33:40;;;;;;;63.10;49.48;;;;;;;9.45;77.43;96127.39;1809891;78;21119;-79
2021/05/01 09:36:19;;;;;;;73.70;60.85;;;;;;;9.51;77.62;96126.66;1797802;78;21110;-80
2021/05/01 09:38:53;;;;;;;65.57;48.60;;;;;;;9.54;77.85;96120.61;1818268;78;21425;-79
2021/05/01 09:41:27;;;;;;;64.50;46.05;;;;;;;9.57;77.82;96120.24;1811015;79;21273;-80
2021/05/01 09:44:09;;;;;;;67.87;52.88;;;;;;;9.56;77.69;96117.34;1803531;78;21216;-79
2021/05/01 09:46:46;;;;;;;64.67;48.40;;;;;;;9.52;77.73;96104.43;1804124;78;21476;-79
2021/05/01 09:49:23;;;;;;;65.60;49.88;;;;;;;9.55;77.60;96094.98;1801443;78;21094;-82
2021/05/01 09:51:55;;;;;;;61.42;47.73;;;;;;;9.61;77.76;96094.77;1810654;78;21098;-78
2021/05/01 09:54:30;;;;;;;64.72;46.85;;;;;;;9.66;77.65;96093.72;1804050;78;21308;-77
2021/05/01 09:57:09;;;;;;;54.77;39.25;;;;;;;9.76;77.97;96085.63;1793114;78;21122;-78
2021/05/01 09:59:52;;;;;;;63.08;46.15;;;;;;;9.80;77.08;96080.41;1807428;79;21098;-77
2021/05/01 10:02:24;;;;;;;65.40;45.52;;;;;;;9.82;77.52;96081.02;1807451;78;21098;-77
2021/05/01 10:05:12;;;;;;;73.37;49.88;;;;;;;9.87;77.53;96082.06;1804675;78;21112;-78
2021/05/01 10:07:41;;;;;;;64.22;46.13;;;;;;;9.93;76.93;96083.94;1800575;78;21085;-78
2021/05/01 10:10:08;;;;;;;60.78;43.40;;;;;;;9.96;77.32;96089.25;1812501;78;21137;-78
2021/05/01 10:12:38;;;;;;;68.12;46.35;;;;;;;10.02;77.20;96093.69;1801645;79;21319;-78
2021/05/01 10:15:17;;;;;;;54.67;39.92;;;;;;;10.05;77.28;96089.92;1791414;78;21085;-78
2021/05/01 10:17:47;;;;;;;63.92;46.63;;;;;;;10.13;77.11;96093.20;1798320;78;21213;-78
2021/05/01 10:20:17;;;;;;;65.10;45.58;;;;;;;10.15;76.93;96083.94;1789376;78;21126;-78
2021/05/01 10:22:47;;;;;;;66.17;47.60;;;;;;;10.23;77.12;96082.52;1796910;79;22245;-77
2021/05/01 10:25:26;;;;;;;61.37;42.48;;;;;;;10.27;77.05;96086.88;1801010;78;21252;-78
2021/05/01 10:27:59;;;;;;;68.87;48.28;;;;;;;10.29;76.87;96081.80;1793204;78;21344;-78
2021/05/01 10:30:34;;;;;;;65.78;46.63;;;;;;;10.25;77.04;96074.08;1789179;79;21121;-77
2021/05/01 10:33:24;;;;;;;60.73;45.38;;;;;;;10.19;76.48;96079.97;1773563;80;21098;-79
2021/05/01 10:36:05;;;;;;;63.70;46.92;;;;;;;10.23;77.01;96087.22;1739824;81;21150;-79
2021/05/01 10:38:33;;;;;;;64.32;47.65;;;;;;;10.22;76.96;96094.70;1737608;81;21086;-78
2021/05/01 10:41:01;;;;;;;58.83;42.98;;;;;;;10.20;76.70;96093.26;1770321;80;21126;-79
2021/05/01 10:43:48;;;;;;;67.92;47.48;;;;;;;10.18;76.67;96088.25;1745575;81;21126;-77
2021/05/01 10:46:14;;;;;;;63.68;46.63;;;;;;;10.18;76.44;96079.16;1795834;78;21252;-78
2021/05/01 10:48:53;;;;;;;69.05;48.55;;;;;;;10.20;76.77;96065.99;1756068;79;21342;-79
2021/05/01 10:51:23;;;;;;;64.53;48.78;;;;;;;10.20;76.95;96069.39;1790406;78;21316;-78
2021/05/01 10:54:17;;;;;;;68.28;49.83;;;;;;;10.14;75.95;96079.73;1784329;79;21102;-79
2021/05/01 10:56:52;;;;;;;61.05;44.83;;;;;;;10.14;76.59;96083.63;1797793;79;21083;-77
2021/05/01 10:59:23;;;;;;;54.03;38.92;;;;;;;10.15;76.04;96083.94;1813283;79;21106;-77
2021/05/01 11:02:02;;;;;;;67.70;47.98;;;;;;;10.05;75.59;96084.23;1768061;79;23167;-79
2021/05/01 11:04:31;;;;;;;61.15;45.30;;;;;;;9.99;76.40;96082.39;1706370;82;21232;-78
2021/05/01 11:07:20;;;;;;;57.90;43.25;;;;;;;10.05;76.66;96083.42;1739285;80;21983;-80
2021/05/01 11:09:48;;;;;;;59.63;43.78;;;;;;;10.07;76.19;96079.66;1736129;81;21464;-79
2021/05/01 11:12:20;;;;;;;57.62;44.77;;;;;;;10.08;76.42;96072.67;1730509;82;21098;-78
2021/05/01 11:15:08;;;;;;;61.23;47.58;;;;;;;10.25;76.18;96092.25;1744912;80;21102;-77
2021/05/01 11:17:43;;;;;;;65.28;47.78;;;;;;;10.25;76.18;96092.25;1743114;80;21216;-77
2021/05/01 11:20:16;;;;;;;66.15;50.50;;;;;;;10.33;76.14;96103.00;1736328;80;21172;-77
2021/05/01 11:22:45;;;;;;;57.17;44.08;;;;;;;10.30;75.92;96102.08;1735512;80;21113;-78
2021/05/01 11:25:14;;;;;;;69.03;49.67;;;;;;;10.27;75.72;96103.75;1747734;80;21142;-79
2021/05/01 11:27:43;;;;;;;64.72;47.78;;;;;;;10.16;75.95;96099.33;1740867;80;21221;-79
2021/05/01 11:30:11;;;;;;;72.35;52.70;;;;;;;10.23;75.64;96098.10;1739545;80;21098;-79
2021/05/01 11:32:37;;;;;;;73.70;52.48;;;;;;;10.32;76.05;96102.69;1746788;80;21146;-79